createdAt,value
2019-02-23T00:00:49.899Z,1.64
2019-02-23T00:03:19.990Z,1.49
2019-02-23T00:05:49.918Z,1.50
2019-02-23T00:08:20.768Z,1.51
2019-02-23T00:10:50.785Z,1.58
2019-02-23T00:13:20.732Z,1.53
2019-02-23T00:15:50.713Z,1.48
2019-02-23T00:18:20.262Z,1.57
2019-02-23T00:20:50.168Z,1.55
2019-02-23T00:23:19.784Z,1.57
2019-02-23T00:25:49.750Z,1.57
2019-02-23T00:28:19.911Z,1.61
2019-02-23T00:30:49.902Z,1.41
2019-02-23T00:33:20.315Z,1.33
2019-02-23T00:38:20.994Z,1.37
2019-02-23T00:40:50.886Z,1.13
2019-02-23T00:43:20.750Z,1.32
2019-02-23T00:45:50.898Z,1.46
2019-02-23T00:48:21.424Z,1.31
2019-02-23T00:50:51.062Z,1.20
2019-02-23T00:53:20.768Z,1.26
2019-02-23T00:55:50.668Z,1.23
2019-02-23T00:58:21.017Z,1.19
2019-02-23T01:00:50.646Z,1.06
2019-02-23T01:03:22.217Z,1.12
2019-02-23T01:05:51.933Z,1.10
2019-02-23T01:08:21.923Z,1.14
2019-02-23T01:10:58.202Z,1.00
2019-02-23T01:13:23.386Z,0.97
2019-02-23T01:15:53.588Z,1.09
2019-02-23T01:18:23.219Z,1.12
2019-02-23T01:20:52.894Z,1.12
2019-02-23T01:23:22.830Z,0.74
2019-02-23T01:25:52.442Z,0.88
2019-02-23T01:28:22.214Z,0.96
2019-02-23T01:30:52.084Z,0.84
2019-02-23T01:33:22.910Z,0.93
2019-02-23T01:35:52.742Z,0.93
2019-02-23T01:38:22.622Z,0.96
2019-02-23T01:40:52.527Z,0.90
2019-02-23T01:43:22.441Z,0.86
2019-02-23T01:45:52.345Z,0.81
2019-02-23T01:48:22.287Z,0.76
2019-02-23T01:50:51.998Z,0.79
2019-02-23T01:53:21.652Z,0.66
2019-02-23T01:55:51.363Z,0.58
2019-02-23T01:58:21.324Z,0.59
2019-02-23T02:00:51.212Z,0.57
2019-02-23T02:03:21.058Z,0.45
2019-02-23T02:05:51.900Z,0.49
2019-02-23T02:08:22.042Z,0.56
2019-02-23T02:10:52.024Z,0.60
2019-02-23T02:13:22.082Z,0.52
2019-02-23T02:15:51.986Z,0.45
2019-02-23T02:18:21.626Z,0.38
2019-02-23T02:20:52.031Z,0.41
2019-02-23T02:23:22.008Z,0.29
2019-02-23T02:25:51.731Z,0.32
2019-02-23T02:28:21.460Z,0.41
2019-02-23T02:30:51.341Z,0.36
2019-02-23T02:33:22.027Z,0.49
2019-02-23T02:35:52.030Z,0.37
2019-02-23T02:38:21.885Z,0.31
2019-02-23T02:40:51.737Z,0.37
2019-02-23T02:43:21.582Z,0.45
2019-02-23T02:45:51.625Z,0.38
2019-02-23T02:48:21.947Z,0.33
2019-02-23T02:51:03.780Z,0.38
2019-02-23T02:53:34.190Z,0.50
2019-02-23T02:56:03.914Z,0.46
2019-02-23T02:58:34.183Z,0.46
2019-02-23T03:01:03.818Z,0.50
2019-02-23T03:03:33.814Z,0.39
2019-02-23T03:06:03.671Z,0.41
2019-02-23T03:08:33.555Z,0.49
2019-02-23T03:11:04.265Z,0.39
2019-02-23T03:13:34.145Z,0.39
2019-02-23T03:16:04.006Z,0.46
2019-02-23T03:18:33.878Z,0.43
2019-02-23T03:21:04.003Z,0.45
2019-02-23T03:23:33.908Z,0.32
2019-02-23T03:26:04.290Z,0.45
2019-02-23T03:28:33.890Z,0.36
2019-02-23T03:31:04.360Z,0.52
2019-02-23T03:33:34.285Z,0.50
2019-02-23T03:36:03.901Z,0.31
2019-02-23T03:38:34.184Z,0.33
2019-02-23T03:41:04.641Z,0.32
2019-02-23T03:43:34.505Z,0.17
2019-02-23T03:46:04.731Z,0.25
2019-02-23T03:48:34.581Z,0.33
2019-02-23T03:51:04.811Z,0.33
2019-02-23T03:53:34.696Z,0.28
2019-02-23T03:56:05.130Z,0.23
2019-02-23T03:58:35.084Z,0.37
2019-02-23T04:01:05.247Z,0.36
2019-02-23T04:03:35.562Z,0.35
2019-02-23T04:06:06.162Z,0.41
2019-02-23T04:08:36.077Z,0.17
2019-02-23T04:11:05.777Z,0.36
2019-02-23T04:13:35.469Z,0.28
2019-02-23T04:16:05.108Z,0.38
2019-02-23T04:18:34.953Z,0.51
2019-02-23T04:21:04.621Z,0.56
2019-02-23T04:23:34.813Z,0.56
2019-02-23T04:26:04.494Z,0.48
2019-02-23T04:28:34.381Z,0.52
2019-02-23T04:31:04.048Z,0.56
2019-02-23T04:33:33.710Z,0.40
2019-02-23T04:36:03.410Z,0.46
2019-02-23T04:38:33.257Z,0.43
2019-02-23T04:41:03.539Z,0.39
2019-02-23T04:43:33.382Z,0.61
2019-02-23T04:46:03.332Z,0.39
2019-02-23T04:48:33.216Z,0.67
2019-02-23T04:51:13.845Z,0.46
2019-02-23T04:53:35.242Z,0.38
2019-02-23T04:56:04.961Z,0.54
2019-02-23T04:58:35.204Z,0.50
2019-02-23T05:01:05.170Z,0.61
2019-02-23T05:03:35.130Z,0.47
2019-02-23T05:06:04.771Z,0.43
2019-02-23T05:08:34.699Z,0.51
2019-02-23T05:11:04.430Z,0.35
2019-02-23T05:13:34.343Z,0.53
2019-02-23T05:16:04.065Z,0.55
2019-02-23T05:18:33.908Z,0.48
2019-02-23T05:21:03.779Z,0.52
2019-02-23T05:23:33.684Z,0.34
2019-02-23T05:26:03.413Z,0.64
2019-02-23T05:28:33.271Z,0.54
2019-02-23T05:31:03.055Z,0.32
2019-02-23T05:33:32.949Z,0.36
2019-02-23T05:36:03.126Z,0.37
2019-02-23T05:38:33.068Z,0.36
2019-02-23T05:41:02.921Z,0.40
2019-02-23T05:43:32.819Z,0.51
2019-02-23T05:46:02.825Z,0.29
2019-02-23T05:48:32.730Z,0.31
2019-02-23T05:51:02.892Z,0.31
2019-02-23T05:53:33.189Z,0.35
2019-02-23T05:56:02.873Z,0.25
2019-02-23T05:58:33.108Z,0.39
2019-02-23T06:01:02.831Z,0.49
2019-02-23T06:03:33.085Z,0.36
2019-02-23T06:06:02.790Z,0.27
2019-02-23T06:08:32.967Z,0.21
2019-02-23T06:11:03.842Z,0.08
2019-02-23T06:13:33.729Z,0.23
2019-02-23T06:16:04.115Z,0.49
2019-02-23T06:18:34.263Z,0.27
2019-02-23T06:21:05.411Z,0.27
2019-02-23T06:23:36.285Z,0.44
2019-02-23T06:26:05.959Z,0.26
2019-02-23T06:28:35.872Z,0.21
2019-02-23T06:31:05.506Z,0.36
2019-02-23T06:33:37.007Z,0.18
2019-02-23T06:36:06.846Z,0.34
2019-02-23T06:38:36.492Z,0.66
2019-02-23T06:41:06.686Z,0.61
2019-02-23T06:43:36.551Z,0.56
2019-02-23T06:46:06.576Z,0.45
2019-02-23T06:48:36.237Z,0.78
2019-02-23T06:51:06.084Z,0.87
2019-02-23T06:53:36.318Z,0.88
2019-02-23T06:56:06.090Z,0.65
2019-02-23T06:58:39.229Z,0.63
2019-02-23T07:01:09.336Z,0.80
2019-02-23T07:03:39.237Z,0.85
2019-02-23T07:06:09.094Z,0.78
2019-02-23T07:08:39.085Z,0.62
2019-02-23T07:11:09.055Z,0.58
2019-02-23T07:13:42.541Z,0.51
2019-02-23T07:16:12.463Z,0.60
2019-02-23T07:18:42.377Z,0.63
2019-02-23T07:21:12.295Z,0.46
2019-02-23T07:23:42.831Z,0.60
2019-02-23T07:26:12.445Z,0.58
2019-02-23T07:28:42.353Z,0.62
2019-02-23T07:31:12.389Z,0.71
2019-02-23T07:33:42.534Z,0.57
2019-02-23T07:36:12.784Z,0.75
2019-02-23T07:38:42.439Z,0.54
2019-02-23T07:41:12.282Z,0.75
2019-02-23T07:43:41.963Z,0.85
2019-02-23T07:46:12.064Z,0.78
2019-02-23T07:48:41.964Z,0.73
2019-02-23T07:51:11.620Z,0.78
2019-02-23T07:53:41.587Z,1.03
2019-02-23T07:56:11.849Z,0.99
2019-02-23T07:58:42.624Z,1.19
2019-02-23T08:01:12.331Z,1.35
2019-02-23T08:03:42.609Z,1.28
2019-02-23T08:06:12.454Z,0.94
2019-02-23T08:08:42.676Z,0.87
2019-02-23T08:11:12.579Z,1.04
2019-02-23T08:13:42.209Z,1.12
2019-02-23T08:16:12.171Z,1.01
2019-02-23T08:18:41.928Z,0.96
2019-02-23T08:21:11.710Z,1.19
2019-02-23T08:23:41.677Z,1.26
2019-02-23T08:26:11.705Z,1.10
2019-02-23T08:28:41.439Z,1.31
2019-02-23T08:31:13.367Z,1.31
2019-02-23T08:33:43.398Z,1.65
2019-02-23T08:36:13.304Z,1.56
2019-02-23T08:38:43.331Z,1.69
2019-02-23T08:41:13.567Z,1.52
2019-02-23T08:43:43.589Z,1.75
2019-02-23T08:46:13.587Z,1.80
2019-02-23T08:48:43.501Z,1.54
2019-02-23T08:51:13.098Z,1.81
2019-02-23T08:53:44.468Z,1.66
2019-02-23T08:56:14.693Z,2.21
2019-02-23T08:58:45.087Z,2.24
2019-02-23T09:01:14.824Z,2.95
2019-02-23T09:03:45.302Z,2.67
2019-02-23T09:06:15.047Z,2.76
2019-02-23T09:08:45.066Z,2.22
2019-02-23T09:11:15.474Z,2.79
2019-02-23T09:13:46.137Z,3.28
2019-02-23T09:16:15.741Z,3.21
2019-02-23T09:18:46.002Z,2.83
2019-02-23T09:21:15.890Z,3.53
2019-02-23T09:23:46.238Z,3.61
2019-02-23T09:26:15.948Z,4.01
2019-02-23T09:28:45.942Z,3.37
2019-02-23T09:31:16.257Z,3.77
2019-02-23T09:33:46.162Z,3.94
2019-02-23T09:36:16.411Z,4.45
2019-02-23T09:38:46.402Z,3.86
2019-02-23T09:41:16.599Z,3.50
2019-02-23T09:43:47.070Z,4.15
2019-02-23T09:46:16.772Z,3.90
2019-02-23T09:48:46.570Z,4.18
2019-02-23T09:51:16.241Z,4.34
2019-02-23T09:53:46.578Z,3.56
2019-02-23T09:56:17.596Z,4.07
2019-02-23T09:58:47.666Z,4.01
2019-02-23T10:01:17.380Z,3.73
2019-02-23T10:03:47.005Z,4.04
2019-02-23T10:06:16.615Z,4.07
2019-02-23T10:08:46.341Z,4.30
2019-02-23T10:11:16.240Z,4.31
2019-02-23T10:13:47.105Z,3.82
2019-02-23T10:16:16.749Z,4.14
2019-02-23T10:18:47.188Z,4.58
2019-02-23T10:21:17.149Z,5.26
2019-02-23T10:23:47.268Z,5.01
2019-02-23T10:26:17.213Z,4.60
2019-02-23T10:28:48.316Z,4.18
2019-02-23T10:31:18.756Z,4.50
2019-02-23T10:33:48.741Z,4.82
2019-02-23T10:36:18.600Z,5.45
2019-02-23T10:38:48.330Z,5.44
2019-02-23T10:41:18.506Z,5.37
2019-02-23T10:43:48.854Z,5.37
2019-02-23T10:46:18.548Z,4.88
2019-02-23T10:48:48.292Z,5.20
2019-02-23T10:51:18.524Z,5.23
2019-02-23T10:53:48.490Z,5.72
2019-02-23T10:56:19.757Z,4.72
2019-02-23T10:58:49.785Z,5.35
2019-02-23T11:01:19.808Z,5.13
2019-02-23T11:03:49.694Z,5.54
2019-02-23T11:06:20.687Z,5.34
2019-02-23T11:08:50.708Z,5.67
2019-02-23T11:11:20.794Z,5.36
2019-02-23T11:13:50.778Z,5.05
2019-02-23T11:16:21.174Z,5.51
2019-02-23T11:18:51.499Z,5.44
2019-02-23T11:21:22.126Z,5.42
2019-02-23T11:23:52.040Z,6.19
2019-02-23T11:26:21.954Z,6.19
2019-02-23T11:28:52.154Z,6.55
2019-02-23T11:31:21.836Z,6.47
2019-02-23T11:33:51.747Z,6.72
2019-02-23T11:36:21.783Z,7.09
2019-02-23T11:38:51.692Z,7.01
2019-02-23T11:41:22.097Z,6.59
2019-02-23T11:43:52.478Z,6.49
2019-02-23T11:46:22.184Z,6.63
2019-02-23T11:48:52.098Z,6.69
2019-02-23T11:51:21.779Z,6.87
2019-02-23T11:53:54.861Z,7.25
2019-02-23T11:56:23.085Z,6.51
2019-02-23T11:58:53.099Z,6.39
2019-02-23T12:01:23.214Z,6.44
2019-02-23T12:03:53.151Z,6.45
2019-02-23T12:06:22.889Z,6.47
2019-02-23T12:08:52.856Z,7.04
2019-02-23T12:11:22.717Z,6.51
2019-02-23T12:13:52.664Z,7.02
2019-02-23T12:16:22.343Z,6.87
2019-02-23T12:18:52.310Z,7.02
2019-02-23T12:21:22.335Z,6.90
2019-02-23T12:23:53.563Z,7.01
2019-02-23T12:26:23.474Z,6.86
2019-02-23T12:28:53.366Z,6.55
2019-02-23T12:31:22.984Z,6.25
2019-02-23T12:33:52.813Z,6.51
2019-02-23T12:36:22.430Z,6.67
2019-02-23T12:38:52.872Z,6.71
2019-02-23T12:41:22.780Z,7.12
2019-02-23T12:43:52.705Z,7.26
2019-02-23T12:46:22.618Z,7.35
2019-02-23T12:48:52.530Z,7.18
2019-02-23T12:51:22.153Z,7.46
2019-02-23T12:53:52.127Z,7.59
2019-02-23T12:56:22.446Z,8.10
2019-02-23T12:58:52.166Z,8.04
2019-02-23T13:01:21.854Z,8.19
2019-02-23T13:03:51.833Z,7.67
2019-02-23T13:06:21.526Z,7.29
2019-02-23T13:09:13.920Z,6.87
2019-02-23T13:11:50.792Z,7.14
2019-02-23T13:14:58.686Z,7.38
2019-02-23T13:17:53.988Z,6.54
2019-02-23T13:21:06.783Z,6.59
2019-02-23T13:23:49.514Z,6.91
2019-02-23T13:26:41.147Z,7.05
2019-02-23T13:29:27.082Z,6.77
2019-02-23T13:32:46.070Z,7.14
2019-02-23T13:35:37.224Z,6.82
2019-02-23T13:38:33.384Z,6.58
2019-02-23T13:41:15.900Z,6.53
2019-02-23T13:44:29.179Z,6.34
2019-02-23T13:47:20.698Z,6.02
2019-02-23T13:50:22.993Z,6.01
2019-02-23T13:53:19.107Z,6.16
2019-02-23T13:56:31.714Z,6.38
2019-02-23T13:59:38.550Z,6.64
2019-02-23T14:02:55.678Z,6.63
2019-02-23T14:06:04.866Z,6.50
2019-02-23T14:09:10.769Z,6.40
2019-02-23T14:12:10.650Z,6.44
2019-02-23T14:15:11.990Z,6.16
2019-02-23T14:18:14.843Z,6.42
2019-02-23T14:21:50.393Z,6.51
2019-02-23T14:25:02.257Z,6.58
2019-02-23T14:28:20.220Z,6.16
2019-02-23T14:31:31.327Z,6.46
2019-02-23T14:34:29.106Z,5.92
2019-02-23T14:37:43.466Z,5.68
2019-02-23T14:40:41.357Z,5.88
2019-02-23T14:43:44.828Z,5.76
2019-02-23T14:46:59.108Z,5.88
2019-02-23T14:50:04.418Z,5.78
2019-02-23T14:53:00.550Z,5.85
2019-02-23T14:56:29.893Z,5.95
2019-02-23T14:59:12.246Z,6.08
2019-02-23T15:01:55.157Z,5.73
2019-02-23T15:04:35.294Z,5.84
2019-02-23T15:07:33.874Z,5.86
2019-02-23T15:10:45.076Z,5.70
2019-02-23T15:13:39.799Z,5.78
2019-02-23T15:16:37.902Z,5.79
2019-02-23T15:19:34.747Z,5.81
2019-02-23T15:22:32.552Z,5.75
2019-02-23T15:25:32.820Z,5.69
2019-02-23T15:28:43.365Z,5.74
2019-02-23T15:31:53.559Z,5.63
2019-02-23T15:35:10.860Z,5.47
2019-02-23T15:38:08.341Z,5.41
2019-02-23T15:40:47.360Z,5.48
2019-02-23T15:43:28.469Z,5.36
2019-02-23T15:46:19.328Z,5.51
2019-02-23T15:49:33.622Z,5.57
2019-02-23T15:52:07.699Z,5.35
2019-02-23T15:54:37.843Z,5.57
2019-02-23T15:57:07.561Z,5.52
2019-02-23T15:59:38.156Z,5.46
2019-02-23T16:02:08.033Z,5.43
2019-02-23T16:04:37.668Z,5.56
2019-02-23T16:07:07.655Z,5.56
2019-02-23T16:09:37.354Z,5.52
2019-02-23T16:12:07.083Z,5.66
2019-02-23T16:14:36.680Z,5.57
2019-02-23T16:17:06.317Z,5.44
2019-02-23T16:19:35.941Z,5.43
2019-02-23T16:22:06.070Z,5.44
2019-02-23T16:24:36.207Z,5.25
2019-02-23T16:27:05.936Z,5.26
2019-02-23T16:29:38.782Z,5.47
2019-02-23T16:32:07.490Z,5.39
2019-02-23T16:34:37.335Z,5.26
2019-02-23T16:37:09.086Z,5.38
2019-02-23T16:39:40.544Z,5.38
2019-02-23T16:42:10.277Z,5.17
2019-02-23T16:44:40.204Z,5.32
2019-02-23T16:47:09.887Z,5.20
2019-02-23T16:49:41.707Z,5.16
2019-02-23T16:52:11.595Z,5.18
2019-02-23T16:54:41.460Z,5.19
2019-02-23T16:57:11.609Z,5.27
2019-02-23T16:59:41.761Z,5.17
2019-02-23T17:02:11.704Z,5.20
2019-02-23T17:04:53.206Z,5.31
2019-02-23T17:07:13.304Z,5.29
2019-02-23T17:09:42.960Z,5.11
2019-02-23T17:12:12.937Z,5.11
2019-02-23T17:14:42.929Z,4.98
2019-02-23T17:17:13.071Z,4.86
2019-02-23T17:19:43.030Z,4.97
2019-02-23T17:22:13.089Z,5.05
2019-02-23T17:24:42.741Z,4.97
2019-02-23T17:27:13.012Z,4.98
2019-02-23T17:29:42.721Z,4.81
2019-02-23T17:32:12.823Z,4.82
2019-02-23T17:34:43.252Z,4.68
2019-02-23T17:37:13.409Z,4.70
2019-02-23T17:39:43.094Z,4.54
2019-02-23T17:42:13.250Z,4.53
2019-02-23T17:44:43.109Z,4.58
2019-02-23T17:47:12.915Z,4.62
2019-02-23T17:49:42.805Z,4.42
2019-02-23T17:52:13.128Z,4.36
2019-02-23T17:54:43.491Z,4.54
2019-02-23T17:57:13.762Z,4.32
2019-02-23T17:59:44.103Z,4.48
2019-02-23T18:02:15.070Z,4.33
2019-02-23T18:04:44.831Z,4.33
2019-02-23T18:07:14.749Z,4.37
2019-02-23T18:09:44.687Z,4.27
2019-02-23T18:12:15.136Z,4.49
2019-02-23T18:14:45.113Z,4.39
2019-02-23T18:17:15.137Z,4.21
2019-02-23T18:19:45.297Z,4.50
2019-02-23T18:22:15.545Z,4.32
2019-02-23T18:24:45.658Z,4.30
2019-02-23T18:27:15.401Z,4.37
2019-02-23T18:29:45.464Z,4.30
2019-02-23T18:32:15.945Z,4.30
2019-02-23T18:34:47.201Z,4.37
2019-02-23T18:37:17.334Z,4.34
2019-02-23T18:39:47.621Z,4.23
2019-02-23T18:42:17.703Z,4.10
2019-02-23T18:44:47.332Z,4.14
2019-02-23T18:47:17.417Z,4.16
2019-02-23T18:49:47.547Z,4.26
2019-02-23T18:52:17.318Z,4.18
2019-02-23T18:54:47.816Z,4.26
2019-02-23T18:57:17.964Z,4.13
2019-02-23T18:59:48.017Z,4.22
2019-02-23T19:02:18.190Z,3.98
2019-02-23T19:04:47.826Z,3.98
2019-02-23T19:07:19.411Z,4.07
2019-02-23T19:09:50.075Z,4.05
2019-02-23T19:12:20.563Z,3.99
2019-02-23T19:14:51.114Z,3.96
2019-02-23T19:17:21.307Z,4.02
2019-02-23T19:19:51.633Z,3.93
2019-02-23T19:22:21.498Z,3.85
2019-02-23T19:24:51.751Z,3.93
2019-02-23T19:27:23.188Z,4.01
2019-02-23T19:29:53.691Z,4.00
2019-02-23T19:32:23.518Z,3.89
2019-02-23T19:34:53.153Z,4.01
2019-02-23T19:37:23.832Z,3.91
2019-02-23T19:39:54.106Z,3.75
2019-02-23T19:42:23.748Z,3.74
2019-02-23T19:44:53.486Z,3.69
2019-02-23T19:47:26.578Z,3.82
2019-02-23T19:50:07.264Z,3.92
2019-02-23T19:52:37.354Z,3.83
2019-02-23T19:55:09.049Z,3.78
2019-02-23T19:57:39.007Z,3.74
2019-02-23T20:00:09.013Z,3.74
2019-02-23T20:02:40.674Z,3.74
2019-02-23T20:05:10.519Z,3.90
2019-02-23T20:07:43.086Z,3.70
2019-02-23T20:10:12.989Z,3.65
2019-02-23T20:12:42.802Z,4.01
2019-02-23T20:15:12.688Z,3.91
2019-02-23T20:17:42.325Z,3.73
2019-02-23T20:20:12.241Z,3.63
2019-02-23T20:22:41.860Z,3.80
2019-02-23T20:25:11.488Z,3.85
2019-02-23T20:27:41.343Z,3.67
2019-02-23T20:30:11.318Z,3.79
2019-02-23T20:32:41.261Z,3.87
2019-02-23T20:35:12.007Z,3.73
2019-02-23T20:37:43.191Z,3.56
2019-02-23T20:40:12.872Z,3.52
2019-02-23T20:42:43.231Z,3.48
2019-02-23T20:45:12.956Z,3.63
2019-02-23T20:47:43.077Z,3.76
2019-02-23T20:50:13.324Z,3.66
2019-02-23T20:52:43.436Z,3.58
2019-02-23T20:55:13.025Z,3.41
2019-02-23T20:57:43.037Z,3.47
2019-02-23T21:00:12.832Z,3.44
2019-02-23T21:02:44.401Z,3.32
2019-02-23T21:05:14.232Z,3.25
2019-02-23T21:07:45.894Z,3.37
2019-02-23T21:10:15.683Z,3.38
2019-02-23T21:12:45.556Z,3.54
2019-02-23T21:15:15.558Z,3.75
2019-02-23T21:17:45.550Z,3.43
2019-02-23T21:20:15.456Z,2.97
2019-02-23T21:22:45.734Z,2.90
2019-02-23T21:25:15.576Z,2.76
2019-02-23T21:27:45.462Z,2.76
2019-02-23T21:30:15.089Z,3.36
2019-02-23T21:32:45.695Z,3.33
2019-02-23T21:35:15.604Z,3.28
2019-02-23T21:37:45.859Z,3.10
2019-02-23T21:40:15.885Z,3.37
2019-02-23T21:42:46.169Z,3.18
2019-02-23T21:45:16.265Z,2.99
2019-02-23T21:47:46.426Z,2.94
2019-02-23T21:50:16.063Z,3.10
2019-02-23T21:52:47.448Z,3.35
2019-02-23T21:55:17.234Z,3.32
2019-02-23T21:57:49.022Z,3.11
2019-02-23T22:00:18.873Z,3.26
2019-02-23T22:02:49.673Z,2.92
2019-02-23T22:05:19.565Z,2.89
2019-02-23T22:07:49.408Z,2.93
2019-02-23T22:10:19.380Z,2.74
2019-02-23T22:12:51.384Z,2.73
2019-02-23T22:15:21.089Z,2.62
2019-02-23T22:17:51.548Z,2.56
2019-02-23T22:20:22.036Z,2.53
2019-02-23T22:22:51.728Z,2.80
2019-02-23T22:25:24.057Z,2.61
2019-02-23T22:27:53.963Z,2.62
2019-02-23T22:30:23.866Z,2.70
2019-02-23T22:32:53.837Z,2.82
2019-02-23T22:35:23.805Z,2.70
2019-02-23T22:37:53.456Z,2.70
2019-02-23T22:40:23.599Z,2.60
2019-02-23T22:42:53.540Z,2.64
2019-02-23T22:45:23.774Z,2.65
2019-02-23T22:47:53.393Z,2.33
2019-02-23T22:50:23.003Z,2.50
2019-02-23T22:52:53.289Z,2.72
2019-02-23T22:55:22.904Z,2.30
2019-02-23T22:57:52.585Z,2.18
2019-02-23T23:00:27.688Z,2.22
2019-02-23T23:02:59.157Z,2.09
2019-02-23T23:05:31.972Z,2.06
2019-02-23T23:08:01.820Z,1.95
2019-02-23T23:10:31.751Z,1.87
2019-02-23T23:13:01.893Z,2.02
2019-02-23T23:15:31.975Z,2.12
2019-02-23T23:18:02.206Z,2.19
2019-02-23T23:20:31.834Z,2.20
2019-02-23T23:23:02.249Z,2.04
2019-02-23T23:25:31.858Z,1.92
2019-02-23T23:28:01.761Z,2.41
2019-02-23T23:30:32.053Z,2.55
2019-02-23T23:33:02.469Z,2.30
2019-02-23T23:35:32.087Z,1.88
2019-02-23T23:38:01.935Z,2.00
2019-02-23T23:40:31.943Z,2.44
2019-02-23T23:43:02.015Z,2.39
2019-02-23T23:45:32.260Z,2.14
2019-02-23T23:48:02.085Z,2.27
2019-02-23T23:50:32.089Z,2.18
2019-02-23T23:53:02.243Z,2.06
2019-02-23T23:55:32.128Z,1.97
2019-02-23T23:58:01.871Z,1.81
